createdAt,value
2023-02-08T00:04:33.903Z,28.67
2023-02-08T00:09:42.969Z,27.90
2023-02-08T00:14:44.687Z,28.60
2023-02-08T00:19:47.161Z,29.63
2023-02-08T00:24:51.042Z,31.50
2023-02-08T00:29:55.210Z,30.13
2023-02-08T00:34:58.905Z,36.67
2023-02-08T00:40:02.611Z,30.93
2023-02-08T00:45:05.025Z,37.47
2023-02-08T00:50:12.005Z,28.53
2023-02-08T00:55:20.306Z,28.03
2023-02-08T01:00:24.609Z,26.67
2023-02-08T01:05:28.736Z,26.53
2023-02-08T01:10:35.990Z,29.17
2023-02-08T01:15:42.796Z,28.77
2023-02-08T01:20:46.833Z,28.97
2023-02-08T01:25:51.005Z,30.97
2023-02-08T01:30:52.748Z,32.07
2023-02-08T01:35:55.834Z,32.33
2023-02-08T01:40:59.819Z,29.00
2023-02-08T01:46:04.303Z,28.97
2023-02-08T01:51:22.482Z,28.33
2023-02-08T01:56:36.795Z,28.13
2023-02-08T02:01:39.115Z,28.53
2023-02-08T02:06:47.146Z,31.53
2023-02-08T02:11:51.995Z,29.50
2023-02-08T02:16:56.040Z,29.10
2023-02-08T02:22:19.956Z,28.67
2023-02-08T02:27:30.967Z,31.40
2023-02-08T02:32:47.574Z,34.37
2023-02-08T02:37:57.313Z,32.17
2023-02-08T02:43:39.689Z,37.40
2023-02-08T02:49:12.571Z,34.97
2023-02-08T02:54:19.523Z,32.13
2023-02-08T02:59:23.914Z,38.13
2023-02-08T03:04:34.546Z,31.47
2023-02-08T03:09:56.090Z,30.93
2023-02-08T03:15:11.607Z,34.60
2023-02-08T03:20:22.419Z,36.23
2023-02-08T03:25:31.966Z,31.43
2023-02-08T03:30:50.072Z,32.67
2023-02-08T03:36:06.697Z,33.33
2023-02-08T03:41:15.824Z,39.97
2023-02-08T03:46:32.693Z,34.93
2023-02-08T03:51:39.075Z,33.00
2023-02-08T03:57:10.655Z,33.73
2023-02-08T04:02:21.501Z,33.27
2023-02-08T04:07:23.513Z,32.00
2023-02-08T04:12:25.238Z,35.53
2023-02-08T04:17:29.611Z,32.37
2023-02-08T04:22:31.416Z,32.33
2023-02-08T04:27:38.231Z,36.13
2023-02-08T04:32:39.946Z,36.83
2023-02-08T04:37:46.465Z,36.27
2023-02-08T04:42:48.178Z,42.77
2023-02-08T04:47:51.167Z,33.10
2023-02-08T04:52:53.150Z,42.67
2023-02-08T04:57:54.853Z,44.50
2023-02-08T05:02:57.931Z,38.97
2023-02-08T05:08:02.096Z,42.37
2023-02-08T05:13:08.045Z,38.60
2023-02-08T05:18:09.780Z,40.03
2023-02-08T05:23:11.903Z,42.30
2023-02-08T05:28:14.743Z,41.73
2023-02-08T05:33:19.259Z,41.57
2023-02-08T05:38:22.099Z,34.80
2023-02-08T05:43:23.767Z,40.20
2023-02-08T05:48:30.270Z,39.63
2023-02-08T05:53:32.142Z,42.53
2023-02-08T05:58:36.116Z,39.73
2023-02-08T06:03:41.504Z,39.37
2023-02-08T06:08:45.523Z,38.33
2023-02-08T06:13:48.197Z,41.63
2023-02-08T06:18:49.950Z,37.43
2023-02-08T06:23:58.448Z,34.90
2023-02-08T06:29:00.787Z,35.40
2023-02-08T06:34:02.561Z,33.33
2023-02-08T06:39:09.011Z,31.23
2023-02-08T06:44:12.878Z,32.50
2023-02-08T06:49:17.106Z,31.17
2023-02-08T06:54:21.450Z,37.77
2023-02-08T06:59:26.382Z,32.17
2023-02-08T07:04:31.249Z,31.20
2023-02-08T07:09:36.122Z,34.07
2023-02-08T07:14:40.796Z,31.33
2023-02-08T07:19:44.822Z,31.87
2023-02-08T07:24:48.802Z,30.57
2023-02-08T07:29:52.884Z,32.97
2023-02-08T07:34:57.716Z,31.10
2023-02-08T07:40:00.190Z,29.73
2023-02-08T07:45:07.572Z,36.47
2023-02-08T07:50:09.632Z,37.70
2023-02-08T07:55:16.980Z,32.73
2023-02-08T08:00:21.705Z,29.87
2023-02-08T08:05:28.217Z,34.37
2023-02-08T08:10:31.124Z,34.90
2023-02-08T08:15:34.123Z,29.17
2023-02-08T08:20:39.080Z,27.70
2023-02-08T08:25:45.754Z,28.90
2023-02-08T08:30:47.711Z,25.60
2023-02-08T08:35:49.562Z,27.67
2023-02-08T08:40:57.019Z,25.90
2023-02-08T08:45:59.009Z,25.60
2023-02-08T08:51:05.537Z,24.90
2023-02-08T08:56:11.562Z,24.23
2023-02-08T09:01:16.120Z,24.47
2023-02-08T09:06:20.371Z,24.00
2023-02-08T09:11:26.592Z,24.13
2023-02-08T09:16:28.670Z,22.87
2023-02-08T09:21:34.718Z,23.40
2023-02-08T09:26:41.434Z,22.80
2023-02-08T09:31:48.999Z,21.37
2023-02-08T09:36:53.922Z,22.97
2023-02-08T09:42:02.350Z,22.00
2023-02-08T09:47:19.649Z,21.80
2023-02-08T09:52:27.797Z,22.90
2023-02-08T09:57:33.069Z,22.13
2023-02-08T10:02:39.453Z,21.27
2023-02-08T10:07:47.088Z,19.90
2023-02-08T10:12:57.326Z,20.90
2023-02-08T10:18:14.515Z,19.30
2023-02-08T10:23:29.273Z,18.83
2023-02-08T10:29:14.918Z,18.40
2023-02-08T10:34:18.585Z,17.13
2023-02-08T10:39:30.320Z,16.10
2023-02-08T10:45:18.928Z,17.97
2023-02-08T10:50:34.906Z,16.37
2023-02-08T10:55:43.019Z,16.90
2023-02-08T11:00:51.894Z,17.63
2023-02-08T11:05:58.508Z,16.20
2023-02-08T11:11:12.175Z,16.30
2023-02-08T11:16:28.613Z,17.63
2023-02-08T11:21:40.342Z,17.20
2023-02-08T11:26:42.886Z,15.30
2023-02-08T11:32:16.351Z,16.07
2023-02-08T11:37:25.961Z,14.83
2023-02-08T11:42:44.375Z,16.70
2023-02-08T11:47:49.890Z,14.60
2023-02-08T11:53:00.733Z,17.30
2023-02-08T11:58:27.105Z,15.20
2023-02-08T12:03:39.272Z,15.23
2023-02-08T12:08:59.075Z,14.97
2023-02-08T12:14:15.828Z,15.90
2023-02-08T12:19:28.902Z,15.17
2023-02-08T12:24:59.875Z,16.03
2023-02-08T12:30:26.640Z,16.60
2023-02-08T12:36:03.554Z,16.43
2023-02-08T12:41:24.555Z,15.97
2023-02-08T12:46:44.644Z,15.87
2023-02-08T12:52:19.966Z,16.13
2023-02-08T12:57:23.625Z,15.47
2023-02-08T13:02:57.443Z,14.63
2023-02-08T13:08:30.908Z,16.05
2023-02-08T13:13:40.911Z,15.27
2023-02-08T13:19:04.014Z,14.77
2023-02-08T13:24:14.758Z,13.77
2023-02-08T13:29:21.389Z,14.27
2023-02-08T13:34:33.877Z,14.87
2023-02-08T13:39:36.782Z,13.70
2023-02-08T13:44:40.194Z,12.93
2023-02-08T13:49:53.172Z,12.20
2023-02-08T13:55:33.556Z,12.52
2023-02-08T14:00:56.330Z,11.38
2023-02-08T14:06:06.548Z,11.27
2023-02-08T14:11:17.525Z,12.20
2023-02-08T14:16:30.541Z,10.00
2023-02-08T14:21:43.468Z,9.88
2023-02-08T14:26:51.617Z,10.20
2023-02-08T14:31:58.180Z,9.55
2023-02-08T14:37:11.396Z,9.60
2023-02-08T14:42:53.669Z,9.38
2023-02-08T14:48:07.478Z,9.88
2023-02-08T14:53:14.293Z,9.18
2023-02-08T14:58:27.390Z,9.35
2023-02-08T15:03:35.190Z,8.73
2023-02-08T15:08:37.861Z,8.43
2023-02-08T15:13:39.650Z,9.07
2023-02-08T15:18:45.799Z,8.57
2023-02-08T15:24:00.115Z,7.70
2023-02-08T15:29:19.985Z,7.83
2023-02-08T15:34:25.275Z,6.87
2023-02-08T15:39:40.928Z,6.60
2023-02-08T15:44:46.649Z,7.60
2023-02-08T15:49:55.595Z,5.53
2023-02-08T15:55:01.924Z,4.97
2023-02-08T16:00:11.292Z,5.57
2023-02-08T16:05:32.070Z,6.67
2023-02-08T16:10:39.506Z,6.30
2023-02-08T16:15:46.799Z,8.57
2023-02-08T16:20:57.266Z,10.00
2023-02-08T16:26:12.986Z,13.10
2023-02-08T16:31:26.494Z,10.10
2023-02-08T16:36:39.376Z,7.13
2023-02-08T16:42:15.618Z,36.03
2023-02-08T16:47:29.995Z,10.87
2023-02-08T16:52:34.920Z,5.90
2023-02-08T16:57:48.639Z,7.63
2023-02-08T17:02:53.434Z,5.97
2023-02-08T17:08:00.267Z,5.53
2023-02-08T17:13:19.142Z,7.33
2023-02-08T17:18:25.796Z,6.50
2023-02-08T17:23:30.573Z,6.47
2023-02-08T17:28:35.789Z,11.17
2023-02-08T17:33:43.551Z,12.03
2023-02-08T17:38:46.860Z,11.33
2023-02-08T17:43:55.862Z,12.23
2023-02-08T17:49:01.701Z,12.17
2023-02-08T17:54:07.648Z,12.80
2023-02-08T17:59:11.699Z,14.17
2023-02-08T18:04:13.515Z,14.47
2023-02-08T18:09:15.199Z,15.93
2023-02-08T18:14:22.218Z,16.03
2023-02-08T18:19:24.234Z,17.97
2023-02-08T18:24:27.066Z,17.67
2023-02-08T18:29:32.010Z,18.27
2023-02-08T18:34:39.613Z,17.10
2023-02-08T18:39:41.830Z,16.87
2023-02-08T18:44:46.616Z,18.13
2023-02-08T18:49:53.311Z,16.90
2023-02-08T18:54:58.616Z,16.30
2023-02-08T19:00:03.491Z,17.03
2023-02-08T19:05:05.906Z,17.93
2023-02-08T19:10:10.240Z,17.07
2023-02-08T19:15:15.245Z,17.70
2023-02-08T19:20:19.475Z,18.40
2023-02-08T19:25:25.572Z,18.30
2023-02-08T19:30:33.233Z,17.97
2023-02-08T19:35:40.689Z,17.40
2023-02-08T19:40:44.860Z,17.23
2023-02-08T19:45:48.965Z,16.83
2023-02-08T19:50:55.279Z,17.53
2023-02-08T19:56:04.175Z,15.90
2023-02-08T20:01:11.783Z,15.37
2023-02-08T20:06:18.398Z,15.27
2023-02-08T20:11:23.651Z,16.17
2023-02-08T20:16:31.564Z,14.87
2023-02-08T20:21:39.651Z,14.30
2023-02-08T20:26:48.897Z,12.70
2023-02-08T20:31:55.816Z,14.47
2023-02-08T20:37:07.765Z,14.87
2023-02-08T20:42:12.660Z,14.13
2023-02-08T20:47:19.018Z,14.53
2023-02-08T20:52:23.026Z,17.30
2023-02-08T20:57:25.790Z,16.57
2023-02-08T21:02:27.603Z,18.63
2023-02-08T21:07:33.865Z,20.40
2023-02-08T21:12:36.356Z,22.47
2023-02-08T21:17:43.842Z,21.77
2023-02-08T21:22:45.575Z,20.63
2023-02-08T21:27:51.905Z,23.10
2023-02-08T21:32:56.152Z,20.73
2023-02-08T21:38:02.260Z,19.87
2023-02-08T21:43:06.782Z,18.70
2023-02-08T21:48:08.723Z,15.43
2023-02-08T21:53:33.263Z,14.87
2023-02-08T21:58:37.184Z,13.73
2023-02-08T22:03:38.899Z,13.97
2023-02-08T22:08:46.349Z,14.70
2023-02-08T22:13:53.111Z,14.17
2023-02-08T22:18:54.816Z,14.20
2023-02-08T22:24:01.882Z,15.03
2023-02-08T22:29:08.674Z,15.73
2023-02-08T22:34:10.411Z,16.20
2023-02-08T22:39:14.339Z,14.57
2023-02-08T22:44:16.046Z,14.80
2023-02-08T22:49:19.740Z,14.93
2023-02-08T22:54:21.633Z,15.33
2023-02-08T22:59:23.375Z,14.57
2023-02-08T23:04:28.672Z,15.47
2023-02-08T23:09:33.079Z,15.27
2023-02-08T23:14:37.417Z,14.73
2023-02-08T23:19:42.064Z,15.07
2023-02-08T23:24:46.726Z,14.03
2023-02-08T23:29:51.015Z,14.63
2023-02-08T23:34:52.715Z,14.30
2023-02-08T23:39:56.713Z,13.43
2023-02-08T23:44:59.890Z,14.20
2023-02-08T23:50:02.016Z,13.60
2023-02-08T23:55:04.964Z,13.87
